Time;durP1;ratioP1;P1;durP2;ratioP2;P2;SDS_P1;SDS_P2;PMS_P1;PMS_P2;Temp;Humidity;BMP_temperature;BMP_pressure;BME280_temperature;BME280_humidity;BME280_pressure;Samples;Min_cycle;Max_cycle;Signal;HPM_P1;HPM_P2
2024/01/26 00:02:25;;;;;;;108.75;71.63;;;;;;;-144.47;100.00;61586.06;5068300;28;20025;-74
2024/01/26 00:04:51;;;;;;;119.32;80.07;;;;;;;-144.47;100.00;61586.06;5071007;28;20059;-74
2024/01/26 00:07:16;;;;;;;108.90;74.50;;;;;;;-144.47;100.00;61586.06;5070674;28;20033;-74
2024/01/26 00:09:42;;;;;;;109.13;77.03;;;;;;;-144.47;100.00;61586.06;5070531;28;20040;-73
2024/01/26 00:12:07;;;;;;;113.38;75.90;;;;;;;-144.47;100.00;61586.06;5069342;28;20032;-74
2024/01/26 00:14:33;;;;;;;110.63;77.05;;;;;;;-144.47;100.00;61586.06;5070790;28;20039;-75
2024/01/26 00:16:58;;;;;;;109.72;73.32;;;;;;;-144.47;100.00;61586.06;5071376;28;20162;-75
2024/01/26 00:19:24;;;;;;;111.15;74.28;;;;;;;-144.47;100.00;61586.06;5071005;28;20047;-74
2024/01/26 00:21:49;;;;;;;114.82;74.60;;;;;;;-144.47;100.00;61586.06;5069461;28;20052;-73
2024/01/26 00:24:15;;;;;;;117.35;77.13;;;;;;;-144.47;100.00;61586.06;5055006;28;20029;-73
2024/01/26 00:26:41;;;;;;;123.18;79.45;;;;;;;-144.47;100.00;61586.06;5070830;28;20431;-75
2024/01/26 00:29:07;;;;;;;122.63;82.50;;;;;;;-144.47;100.00;61586.06;5070917;28;20086;-75
2024/01/26 00:31:32;;;;;;;121.53;82.07;;;;;;;-144.47;100.00;61586.06;5070472;28;20468;-74
2024/01/26 00:33:58;;;;;;;117.25;80.13;;;;;;;-144.47;100.00;61586.06;5070928;28;20033;-77
2024/01/26 00:36:23;;;;;;;109.75;73.55;;;;;;;-144.47;100.00;61586.06;5070170;28;20417;-74
2024/01/26 00:38:49;;;;;;;110.68;72.70;;;;;;;-144.47;100.00;61586.06;5069963;28;20028;-74
2024/01/26 00:41:15;;;;;;;97.80;68.38;;;;;;;-144.47;100.00;61586.06;5070706;28;20051;-74
2024/01/26 00:43:41;;;;;;;101.65;69.75;;;;;;;-144.47;100.00;61586.06;5053959;28;20048;-75
2024/01/26 00:46:06;;;;;;;99.15;70.43;;;;;;;-144.47;100.00;61586.06;5070257;28;20039;-74
2024/01/26 00:48:31;;;;;;;104.63;69.78;;;;;;;-144.47;100.00;61586.06;5070175;28;20119;-74
2024/01/26 00:50:57;;;;;;;104.40;69.97;;;;;;;-144.47;100.00;61586.06;5070328;28;20024;-73
2024/01/26 00:53:22;;;;;;;102.22;70.20;;;;;;;-144.47;100.00;61586.06;5069853;28;20028;-75
2024/01/26 00:55:49;;;;;;;101.55;69.85;;;;;;;-144.47;100.00;61586.06;5069741;28;20032;-74
2024/01/26 00:58:14;;;;;;;100.88;70.30;;;;;;;-144.47;100.00;61586.06;5065343;28;20048;-74
2024/01/26 01:00:40;;;;;;;113.47;71.35;;;;;;;-144.47;100.00;61586.06;5069748;28;20108;-73
2024/01/26 01:03:06;;;;;;;111.63;72.60;;;;;;;-144.47;100.00;61586.06;5074412;28;20435;-74
2024/01/26 01:05:31;;;;;;;104.22;71.28;;;;;;;-144.47;100.00;61586.06;5069915;28;20042;-75
2024/01/26 01:07:57;;;;;;;105.85;70.80;;;;;;;-144.47;100.00;61586.06;5069848;28;20056;-75
2024/01/26 01:10:23;;;;;;;116.55;74.43;;;;;;;-144.47;100.00;61586.06;5051496;28;20033;-75
2024/01/26 01:12:49;;;;;;;115.78;75.78;;;;;;;-144.47;100.00;61586.06;5051468;28;20162;-74
2024/01/26 01:15:15;;;;;;;111.50;74.90;;;;;;;-144.47;100.00;61586.06;5070215;28;20038;-74
2024/01/26 01:17:43;;;;;;;131.18;75.10;;;;;;;-144.47;100.00;61586.06;5069818;28;20059;-74
2024/01/26 01:20:10;;;;;;;118.80;76.00;;;;;;;-144.47;100.00;61586.06;5070175;28;20036;-75
2024/01/26 01:22:39;;;;;;;111.20;74.00;;;;;;;-144.47;100.00;61586.06;5069914;28;20087;-75
2024/01/26 01:25:06;;;;;;;128.35;78.53;;;;;;;-144.47;100.00;61586.06;5069417;28;20041;-75
2024/01/26 01:27:32;;;;;;;160.50;75.35;;;;;;;-144.47;100.00;61586.06;5069542;28;20044;-75
2024/01/26 01:29:58;;;;;;;116.13;77.95;;;;;;;-144.47;100.00;61586.06;5069873;28;20048;-73
2024/01/26 01:32:24;;;;;;;122.47;78.55;;;;;;;-144.47;100.00;61586.06;5069730;28;20507;-75
2024/01/26 01:34:49;;;;;;;129.30;77.50;;;;;;;-144.47;100.00;61586.06;5070058;28;20170;-74
2024/01/26 01:37:15;;;;;;;118.60;74.18;;;;;;;-144.47;100.00;61586.06;5069902;28;20024;-74
2024/01/26 01:39:40;;;;;;;108.95;75.22;;;;;;;-144.47;100.00;61586.06;5069136;28;20028;-73
2024/01/26 01:42:13;;;;;;;125.68;72.63;;;;;;;-144.47;100.00;61586.06;5069046;28;20372;-75
2024/01/26 01:44:40;;;;;;;131.25;77.75;;;;;;;-144.47;100.00;61586.06;5069152;28;20412;-75
2024/01/26 01:47:05;;;;;;;118.00;79.95;;;;;;;-144.47;100.00;61586.06;5069703;28;20033;-74
2024/01/26 01:49:30;;;;;;;150.50;80.55;;;;;;;-144.47;100.00;61586.06;5069257;28;20037;-74
2024/01/26 01:51:59;;;;;;;123.82;81.38;;;;;;;-144.47;100.00;61586.06;5069959;28;20695;-73
2024/01/26 01:54:26;;;;;;;155.80;82.18;;;;;;;-144.47;100.00;61586.06;5069585;28;20037;-74
2024/01/26 01:56:53;;;;;;;129.57;81.10;;;;;;;-144.47;100.00;61586.06;5069274;28;20056;-73
2024/01/26 01:59:20;;;;;;;130.07;81.85;;;;;;;-144.47;100.00;61586.06;5048021;28;20036;-74
2024/01/26 02:01:47;;;;;;;190.02;80.72;;;;;;;-144.47;100.00;61586.06;5067291;28;20047;-74
2024/01/26 02:04:13;;;;;;;167.52;82.15;;;;;;;-144.47;100.00;61586.06;5067801;28;20108;-73
2024/01/26 02:06:38;;;;;;;125.90;83.07;;;;;;;-144.47;100.00;61586.06;5068538;28;20450;-74
2024/01/26 02:09:04;;;;;;;218.50;83.35;;;;;;;-144.47;100.00;61586.06;5069518;28;20059;-74
2024/01/26 02:11:29;;;;;;;129.50;83.78;;;;;;;-144.47;100.00;61586.06;5068575;28;20032;-77
2024/01/26 02:13:55;;;;;;;127.57;84.65;;;;;;;-144.47;100.00;61586.06;5069140;28;20112;-75
2024/01/26 02:16:20;;;;;;;127.97;86.55;;;;;;;-144.47;100.00;61586.06;5069515;28;20135;-75
2024/01/26 02:18:45;;;;;;;132.07;85.53;;;;;;;-144.47;100.00;61586.06;5069599;28;20032;-75
2024/01/26 02:21:11;;;;;;;177.35;84.47;;;;;;;-144.47;100.00;61586.06;5051566;28;20037;-76
2024/01/26 02:23:41;;;;;;;129.55;83.78;;;;;;;-144.47;100.00;61586.06;5069306;28;20029;-76
2024/01/26 02:26:07;;;;;;;;;;;;;;;-144.47;100.00;61586.06;5070015;28;20036;-75
2024/01/26 02:28:32;;;;;;;131.07;80.80;;;;;;;-144.47;100.00;61586.06;5050313;28;19917;-75
2024/01/26 02:30:58;;;;;;;165.15;84.45;;;;;;;-144.47;100.00;61586.06;5069267;28;20056;-74
2024/01/26 02:33:23;;;;;;;132.50;82.75;;;;;;;-144.47;100.00;61586.06;5069370;28;20452;-74
2024/01/26 02:35:48;;;;;;;168.32;79.90;;;;;;;-144.47;100.00;61586.06;5068953;28;20074;-74
2024/01/26 02:38:14;;;;;;;129.00;82.20;;;;;;;-144.47;100.00;61586.06;5069072;28;20503;-73
2024/01/26 02:40:39;;;;;;;126.70;84.47;;;;;;;-144.47;100.00;61586.06;5068616;28;20085;-74
2024/01/26 02:43:05;;;;;;;171.23;83.85;;;;;;;-144.47;100.00;61586.06;5049920;28;20098;-74
2024/01/26 02:45:30;;;;;;;177.48;87.03;;;;;;;-144.47;100.00;61586.06;5050368;28;20041;-75
2024/01/26 02:47:57;;;;;;;169.05;85.40;;;;;;;-144.47;100.00;61586.06;5051146;28;20162;-75
2024/01/26 02:50:22;;;;;;;187.57;86.18;;;;;;;-144.47;100.00;61586.06;5068926;28;20041;-74
2024/01/26 02:52:48;;;;;;;163.35;85.97;;;;;;;-144.47;100.00;61586.06;5068765;28;20043;-74
2024/01/26 02:55:13;;;;;;;189.95;84.95;;;;;;;-144.47;100.00;61586.06;5065373;28;20377;-74
2024/01/26 02:57:39;;;;;;;146.88;86.75;;;;;;;-144.47;100.00;61586.06;5068617;28;20067;-73
2024/01/26 03:00:07;;;;;;;148.63;89.57;;;;;;;-144.47;100.00;61586.06;5050395;28;20064;-76
2024/01/26 03:02:33;;;;;;;182.30;88.18;;;;;;;-144.47;100.00;61586.06;5068207;28;20033;-76
2024/01/26 03:04:58;;;;;;;146.40;88.47;;;;;;;-144.47;100.00;61586.06;5067648;28;20098;-75
2024/01/26 03:07:23;;;;;;;155.77;93.05;;;;;;;-144.47;100.00;61586.06;5068927;28;20056;-75
2024/01/26 03:09:49;;;;;;;149.18;90.05;;;;;;;-144.47;100.00;61586.06;5068462;28;20051;-76
2024/01/26 03:12:14;;;;;;;225.85;86.07;;;;;;;-144.47;100.00;61586.06;5068864;28;20043;-76
2024/01/26 03:14:40;;;;;;;167.02;83.38;;;;;;;-144.47;100.00;61586.06;5067700;28;20064;-75
2024/01/26 03:17:05;;;;;;;140.02;86.40;;;;;;;-144.47;100.00;61586.06;5050563;28;20029;-76
2024/01/26 03:19:35;;;;;;;163.55;85.95;;;;;;;-144.47;100.00;61586.06;5068328;28;20686;-75
2024/01/26 03:22:00;;;;;;;149.70;83.93;;;;;;;-144.47;100.00;61586.06;5070676;28;20056;-76
2024/01/26 03:24:26;;;;;;;145.52;86.40;;;;;;;-144.47;100.00;61586.06;5072160;28;20075;-76
2024/01/26 03:26:51;;;;;;;132.10;87.85;;;;;;;-144.47;100.00;61586.06;5054379;28;20090;-75
2024/01/26 03:29:17;;;;;;;136.75;86.97;;;;;;;-144.47;100.00;61586.06;5072132;28;20441;-75
2024/01/26 03:31:42;;;;;;;149.55;86.13;;;;;;;-144.47;100.00;61586.06;5071716;28;20031;-73
2024/01/26 03:34:08;;;;;;;142.93;84.05;;;;;;;-144.47;100.00;61586.06;5054164;28;20136;-75
2024/01/26 03:36:36;;;;;;;139.60;84.57;;;;;;;-144.47;100.00;61586.06;5071541;28;20027;-76
2024/01/26 03:39:03;;;;;;;187.73;85.63;;;;;;;-144.47;100.00;61586.06;5071981;28;20048;-76
2024/01/26 03:41:29;;;;;;;131.02;85.03;;;;;;;-144.47;100.00;61586.06;5071479;28;20054;-75
2024/01/26 03:43:55;;;;;;;125.43;85.82;;;;;;;-144.47;100.00;61586.06;5071830;28;20025;-76
2024/01/26 03:46:20;;;;;;;129.93;88.90;;;;;;;-144.47;100.00;61586.06;5071289;28;20059;-76
2024/01/26 03:48:46;;;;;;;125.75;85.57;;;;;;;-144.47;100.00;61586.06;5071177;28;20036;-75
2024/01/26 03:51:12;;;;;;;143.43;84.25;;;;;;;-144.47;100.00;61586.06;5071727;28;20503;-76
2024/01/26 03:53:37;;;;;;;124.72;83.65;;;;;;;-144.47;100.00;61586.06;5072592;28;20029;-76
2024/01/26 03:56:03;;;;;;;120.25;81.63;;;;;;;-144.47;100.00;61586.06;5086314;28;20091;-75
2024/01/26 03:58:28;;;;;;;122.85;83.05;;;;;;;-144.47;100.00;61586.06;5092708;28;20099;-75
2024/01/26 04:00:53;;;;;;;142.88;83.75;;;;;;;-144.47;100.00;61586.06;5089553;28;20035;-76
2024/01/26 04:03:19;;;;;;;121.32;80.50;;;;;;;-144.47;100.00;61586.06;5069940;28;20027;-75
2024/01/26 04:05:45;;;;;;;127.78;83.18;;;;;;;-144.47;100.00;61586.06;5082629;28;20838;-76
2024/01/26 04:08:12;;;;;;;133.82;85.90;;;;;;;-144.47;100.00;61586.06;5071462;28;20111;-75
2024/01/26 04:10:37;;;;;;;120.05;82.75;;;;;;;-144.47;100.00;61586.06;5070971;28;20421;-75
2024/01/26 04:13:03;;;;;;;144.15;81.22;;;;;;;-144.47;100.00;61586.06;5071672;28;20104;-75
2024/01/26 04:15:28;;;;;;;157.63;80.55;;;;;;;-144.47;100.00;61586.06;5071015;28;20115;-75
2024/01/26 04:17:56;;;;;;;129.88;79.57;;;;;;;-144.47;100.00;61586.06;5070936;28;20025;-75
2024/01/26 04:20:21;;;;;;;157.38;81.47;;;;;;;-144.47;100.00;61586.06;5070558;28;20036;-75
2024/01/26 04:22:47;;;;;;;147.70;84.32;;;;;;;-144.47;100.00;61586.06;5070883;28;20024;-75
2024/01/26 04:25:12;;;;;;;137.70;84.93;;;;;;;-144.47;100.00;61586.06;5071087;28;20456;-74
2024/01/26 04:27:38;;;;;;;142.98;84.10;;;;;;;-144.47;100.00;61586.06;5070722;28;20021;-75
2024/01/26 04:30:04;;;;;;;147.98;80.10;;;;;;;-144.47;100.00;61586.06;5070891;28;20484;-75
2024/01/26 04:32:29;;;;;;;136.68;83.88;;;;;;;-144.47;100.00;61586.06;5069335;28;20031;-75
2024/01/26 04:34:55;;;;;;;170.50;85.03;;;;;;;-144.47;100.00;61586.06;5070446;28;20479;-76
2024/01/26 04:37:21;;;;;;;132.77;84.32;;;;;;;-144.47;100.00;61586.06;5052659;28;20036;-75
2024/01/26 04:39:47;;;;;;;170.27;83.72;;;;;;;-144.47;100.00;61586.06;5070292;28;20439;-75
2024/01/26 04:42:12;;;;;;;147.20;84.72;;;;;;;-144.47;100.00;61586.06;5070523;28;20054;-75
2024/01/26 04:44:38;;;;;;;140.88;86.30;;;;;;;-144.47;100.00;61586.06;5070154;28;20078;-75
2024/01/26 04:47:03;;;;;;;162.27;85.18;;;;;;;-144.47;100.00;61586.06;5070330;28;20032;-75
2024/01/26 04:49:28;;;;;;;157.45;82.60;;;;;;;-144.47;100.00;61586.06;5070100;28;20113;-76
2024/01/26 04:51:54;;;;;;;132.60;84.18;;;;;;;-144.47;100.00;61586.06;5070043;28;20032;-76
2024/01/26 04:54:19;;;;;;;137.13;83.20;;;;;;;-144.47;100.00;61586.06;5070196;28;20036;-75
2024/01/26 04:56:45;;;;;;;133.80;87.13;;;;;;;-144.47;100.00;61586.06;5070071;28;20040;-75
2024/01/26 04:59:10;;;;;;;164.20;79.25;;;;;;;-144.47;100.00;61586.06;5070315;28;20020;-76
2024/01/26 05:01:36;;;;;;;123.15;79.45;;;;;;;-144.47;100.00;61586.06;5070023;28;20025;-75
2024/01/26 05:04:03;;;;;;;142.10;82.65;;;;;;;-144.47;100.00;61586.06;5069791;28;20071;-74
2024/01/26 05:06:29;;;;;;;143.45;86.47;;;;;;;-144.47;100.00;61586.06;5069756;28;20082;-75
2024/01/26 05:08:55;;;;;;;139.48;85.03;;;;;;;-144.47;100.00;61586.06;5071096;28;20025;-75
2024/01/26 05:11:21;;;;;;;129.70;83.70;;;;;;;-144.47;100.00;61586.06;5070424;28;20032;-75
2024/01/26 05:13:47;;;;;;;164.90;75.07;;;;;;;-144.47;100.00;61586.06;5070313;28;20035;-74
2024/01/26 05:16:12;;;;;;;168.60;76.18;;;;;;;-144.47;100.00;61586.06;5070858;28;20070;-74
2024/01/26 05:18:40;;;;;;;141.48;73.28;;;;;;;-144.47;100.00;61586.06;5069802;28;20028;-75
2024/01/26 05:21:05;;;;;;;165.43;73.90;;;;;;;-144.47;100.00;61586.06;5069789;28;20036;-76
2024/01/26 05:23:30;;;;;;;134.75;79.38;;;;;;;-144.47;100.00;61586.06;5069462;28;20059;-76
2024/01/26 05:25:56;;;;;;;147.00;78.65;;;;;;;-144.47;100.00;61586.06;5069972;28;20238;-74
2024/01/26 05:28:22;;;;;;;152.70;76.32;;;;;;;-144.47;100.00;61586.06;5071254;28;20226;-75
2024/01/26 05:30:48;;;;;;;142.07;77.18;;;;;;;-144.47;100.00;61586.06;5071828;28;20028;-76
2024/01/26 05:33:13;;;;;;;127.13;81.40;;;;;;;-144.47;100.00;61586.06;5051850;28;20111;-75
2024/01/26 05:35:38;;;;;;;151.25;79.95;;;;;;;-144.47;100.00;61586.06;5068437;28;20330;-75
2024/01/26 05:38:04;;;;;;;176.38;77.88;;;;;;;-144.47;100.00;61586.06;5069472;28;20436;-75
2024/01/26 05:40:29;;;;;;;129.10;79.60;;;;;;;-144.47;100.00;61586.06;5069212;28;20032;-76
2024/01/26 05:42:55;;;;;;;232.55;83.03;;;;;;;-144.47;100.00;61586.06;5069586;28;20040;-75
2024/01/26 05:45:20;;;;;;;143.70;80.03;;;;;;;-144.47;100.00;61586.06;5052135;28;20051;-76
2024/01/26 05:47:47;;;;;;;197.95;80.43;;;;;;;-144.47;100.00;61586.06;5066409;28;20037;-75
2024/01/26 05:50:14;;;;;;;130.57;81.47;;;;;;;-144.47;100.00;61586.06;5068914;28;20032;-75
2024/01/26 05:52:40;;;;;;;154.55;81.97;;;;;;;-144.47;100.00;61586.06;5068829;28;20024;-77
2024/01/26 05:55:07;;;;;;;142.18;82.80;;;;;;;-144.47;100.00;61586.06;5069474;28;20044;-76
2024/01/26 05:57:33;;;;;;;162.68;82.47;;;;;;;-144.47;100.00;61586.06;5068900;28;20020;-74
2024/01/26 05:59:59;;;;;;;159.38;82.70;;;;;;;-144.47;100.00;61586.06;5066856;28;20032;-74
2024/01/26 06:02:24;;;;;;;130.27;81.18;;;;;;;-144.47;100.00;61586.06;5069378;28;20056;-75
2024/01/26 06:04:50;;;;;;;146.02;78.80;;;;;;;-144.47;100.00;61586.06;5074395;28;20088;-76
2024/01/26 06:07:15;;;;;;;126.65;82.03;;;;;;;-144.47;100.00;61586.06;5050982;28;20434;-75
2024/01/26 06:09:41;;;;;;;222.02;79.93;;;;;;;-144.47;100.00;61586.06;5050870;28;20425;-76
2024/01/26 06:12:06;;;;;;;130.70;82.22;;;;;;;-144.47;100.00;61586.06;5073077;28;20067;-75
2024/01/26 06:14:31;;;;;;;126.90;82.68;;;;;;;-144.47;100.00;61586.06;5069581;28;20118;-72
2024/01/26 06:16:57;;;;;;;175.40;82.03;;;;;;;-144.47;100.00;61586.06;5052829;28;20375;-72
2024/01/26 06:19:22;;;;;;;145.82;76.93;;;;;;;-144.47;100.00;61586.06;5073326;28;20116;-73
2024/01/26 06:21:48;;;;;;;174.90;79.70;;;;;;;-144.47;100.00;61586.06;5073539;28;20499;-72
2024/01/26 06:24:13;;;;;;;128.20;79.78;;;;;;;-144.47;100.00;61586.06;5067361;28;20051;-75
2024/01/26 06:26:38;;;;;;;110.68;72.78;;;;;;;-144.47;100.00;61586.06;5068123;28;20119;-76
2024/01/26 06:29:04;;;;;;;149.43;76.75;;;;;;;-144.47;100.00;61586.06;5050847;28;20494;-73
2024/01/26 06:31:29;;;;;;;130.45;76.15;;;;;;;-144.47;100.00;61586.06;5068947;28;20036;-72
2024/01/26 06:33:55;;;;;;;124.30;76.90;;;;;;;-144.47;100.00;61586.06;5065374;28;20134;-73
2024/01/26 06:36:20;;;;;;;137.48;77.22;;;;;;;-144.47;100.00;61586.06;5064180;28;20024;-74
2024/01/26 06:38:46;;;;;;;128.40;79.35;;;;;;;-144.47;100.00;61586.06;5067873;28;20265;-75
2024/01/26 06:41:11;;;;;;;136.60;80.95;;;;;;;-144.47;100.00;61586.06;5049561;28;20123;-74
2024/01/26 06:43:37;;;;;;;125.57;81.30;;;;;;;-144.47;100.00;61586.06;5067980;28;20075;-74
2024/01/26 06:46:03;;;;;;;135.43;79.03;;;;;;;-144.47;100.00;61586.06;5068423;28;20419;-73
2024/01/26 06:48:28;;;;;;;132.50;76.85;;;;;;;-144.47;100.00;61586.06;5068057;28;20451;-73
2024/01/26 06:50:54;;;;;;;123.55;78.28;;;;;;;-144.47;100.00;61586.06;5067826;28;20035;-74
2024/01/26 06:53:21;;;;;;;151.93;79.43;;;;;;;-144.47;100.00;61586.06;5068511;28;20086;-73
2024/01/26 06:55:47;;;;;;;139.63;80.05;;;;;;;-144.47;100.00;61586.06;5050926;28;20040;-75
2024/01/26 06:58:12;;;;;;;129.60;82.25;;;;;;;-144.47;100.00;61586.06;5072919;28;20040;-74
2024/01/26 07:00:38;;;;;;;145.68;86.00;;;;;;;-144.47;100.00;61586.06;5072666;28;20024;-73
2024/01/26 07:03:03;;;;;;;146.18;84.05;;;;;;;-144.47;100.00;61586.06;5072565;28;20393;-74
2024/01/26 07:05:29;;;;;;;157.00;81.38;;;;;;;-144.47;100.00;61586.06;5054051;28;20040;-73
2024/01/26 07:07:56;;;;;;;139.60;84.00;;;;;;;-144.47;100.00;61586.06;5072647;28;20032;-72
2024/01/26 07:10:22;;;;;;;135.85;85.90;;;;;;;-144.47;100.00;61586.06;5071699;28;20047;-72
2024/01/26 07:12:48;;;;;;;139.43;86.55;;;;;;;-144.47;100.00;61586.06;5070528;28;20036;-72
2024/01/26 07:15:14;;;;;;;154.88;80.90;;;;;;;-144.47;100.00;61586.06;5071986;28;20495;-73
2024/01/26 07:17:39;;;;;;;154.18;84.13;;;;;;;-144.47;100.00;61586.06;5071900;28;20087;-73
2024/01/26 07:20:05;;;;;;;143.25;78.70;;;;;;;-144.47;100.00;61586.06;5072231;28;20024;-73
2024/01/26 07:22:31;;;;;;;135.38;81.00;;;;;;;-144.47;100.00;61586.06;5071752;28;20029;-73
2024/01/26 07:24:56;;;;;;;134.82;81.63;;;;;;;-144.47;100.00;61586.06;5071865;28;20044;-74
2024/01/26 07:27:22;;;;;;;151.93;79.20;;;;;;;-144.47;100.00;61586.06;5071957;28;20155;-73
2024/01/26 07:29:47;;;;;;;162.60;79.80;;;;;;;-144.47;100.00;61586.06;5072128;28;20105;-74
2024/01/26 07:32:13;;;;;;;128.45;80.40;;;;;;;-144.47;100.00;61586.06;5072616;28;20028;-73
2024/01/26 07:34:39;;;;;;;135.02;80.03;;;;;;;-144.47;100.00;61586.06;5071567;28;20104;-74
2024/01/26 07:37:04;;;;;;;152.40;79.38;;;;;;;-144.47;100.00;61586.06;5072835;28;20037;-73
2024/01/26 07:39:30;;;;;;;152.07;82.30;;;;;;;-144.47;100.00;61586.06;5071652;28;20024;-74
2024/01/26 07:41:55;;;;;;;150.68;80.80;;;;;;;-144.47;100.00;61586.06;5071029;28;20040;-74
2024/01/26 07:44:21;;;;;;;132.40;85.03;;;;;;;-144.47;100.00;61586.06;5071737;28;20036;-75
2024/01/26 07:46:46;;;;;;;143.05;80.38;;;;;;;-144.47;100.00;61586.06;5071587;28;20064;-73
2024/01/26 07:49:12;;;;;;;153.23;79.45;;;;;;;-144.47;100.00;61586.06;5072054;28;20475;-75
2024/01/26 07:51:37;;;;;;;143.55;78.75;;;;;;;-144.47;100.00;61586.06;5071418;28;20115;-74
2024/01/26 07:54:03;;;;;;;170.45;81.75;;;;;;;-144.47;100.00;61586.06;5072262;28;20120;-74
2024/01/26 07:56:28;;;;;;;148.57;76.70;;;;;;;-144.47;100.00;61586.06;5071193;28;20116;-75
2024/01/26 07:58:55;;;;;;;137.00;80.57;;;;;;;-144.47;100.00;61586.06;5071622;28;20365;-72
2024/01/26 08:01:21;;;;;;;149.32;81.88;;;;;;;-144.47;100.00;61586.06;5071894;28;20136;-73
2024/01/26 08:03:46;;;;;;;136.95;76.07;;;;;;;-144.47;100.00;61586.06;5071609;28;20036;-74
2024/01/26 08:06:12;;;;;;;131.20;81.50;;;;;;;-144.47;100.00;61586.06;5071286;28;20333;-74
2024/01/26 08:08:37;;;;;;;130.45;80.80;;;;;;;-144.47;100.00;61586.06;5070928;28;20095;-73
2024/01/26 08:11:03;;;;;;;120.53;74.60;;;;;;;-144.47;100.00;61586.06;5071161;28;20448;-74
2024/01/26 08:13:28;;;;;;;125.35;76.18;;;;;;;-144.47;100.00;61586.06;5052666;28;20024;-74
2024/01/26 08:15:54;;;;;;;130.00;73.70;;;;;;;-144.47;100.00;61586.06;5071381;28;20482;-73
2024/01/26 08:18:20;;;;;;;116.55;73.13;;;;;;;-144.47;100.00;61586.06;5053585;28;20107;-74
2024/01/26 08:20:45;;;;;;;123.95;74.68;;;;;;;-144.47;100.00;61586.06;5070786;28;20029;-74
2024/01/26 08:23:11;;;;;;;109.40;74.53;;;;;;;-144.47;100.00;61586.06;5071214;28;20393;-74
2024/01/26 08:25:36;;;;;;;121.03;79.80;;;;;;;-144.47;100.00;61586.06;5070773;28;20040;-72
2024/01/26 08:28:02;;;;;;;125.93;80.65;;;;;;;-144.47;100.00;61586.06;5070623;28;20047;-73
2024/01/26 08:30:28;;;;;;;163.65;75.18;;;;;;;-144.47;100.00;61586.06;5070497;28;20028;-74
2024/01/26 08:32:54;;;;;;;118.97;73.25;;;;;;;-144.47;100.00;61586.06;5070897;28;20032;-74
2024/01/26 08:35:19;;;;;;;110.95;75.70;;;;;;;-144.47;100.00;61586.06;5071131;28;20488;-74
2024/01/26 08:37:45;;;;;;;111.47;76.90;;;;;;;-144.47;100.00;61586.06;5071560;28;20033;-73
2024/01/26 08:40:10;;;;;;;113.78;75.30;;;;;;;-144.47;100.00;61586.06;5070498;28;20365;-73
2024/01/26 08:42:36;;;;;;;173.75;70.60;;;;;;;-144.47;100.00;61586.06;5069949;28;20040;-73
2024/01/26 08:45:03;;;;;;;119.15;70.43;;;;;;;-144.47;100.00;61586.06;5052219;28;20037;-73
2024/01/26 08:47:28;;;;;;;145.00;71.68;;;;;;;-144.47;100.00;61586.06;5070143;28;20039;-73
2024/01/26 08:49:54;;;;;;;109.25;75.63;;;;;;;-144.47;100.00;61586.06;5070433;28;20273;-73
2024/01/26 08:52:19;;;;;;;105.50;71.32;;;;;;;-144.47;100.00;61586.06;5070203;28;20025;-73
2024/01/26 08:54:45;;;;;;;117.70;75.90;;;;;;;-144.47;100.00;61586.06;5070556;28;20150;-74
2024/01/26 08:57:11;;;;;;;102.22;73.15;;;;;;;-144.47;100.00;61586.06;5071015;28;20063;-74
2024/01/26 08:59:37;;;;;;;98.32;72.53;;;;;;;-144.47;100.00;61586.06;5070007;28;20040;-74
2024/01/26 09:02:03;;;;;;;106.78;73.80;;;;;;;-144.47;100.00;61586.06;5070576;28;20036;-74
2024/01/26 09:04:28;;;;;;;97.10;70.30;;;;;;;-144.47;100.00;61586.06;5070121;28;20046;-74
2024/01/26 09:06:53;;;;;;;104.05;69.30;;;;;;;-144.47;100.00;61586.06;5069692;28;20044;-74
2024/01/26 09:09:19;;;;;;;90.82;66.88;;;;;;;-144.47;100.00;61586.06;5071523;28;20100;-74
2024/01/26 09:11:45;;;;;;;150.82;67.22;;;;;;;-144.47;100.00;61586.06;5065506;28;20036;-73
2024/01/26 09:14:10;;;;;;;97.22;67.97;;;;;;;-144.47;100.00;61586.06;5069635;28;20150;-74
2024/01/26 09:16:36;;;;;;;111.00;66.20;;;;;;;-144.47;100.00;61586.06;5069340;28;20025;-74
2024/01/26 09:19:02;;;;;;;122.28;65.85;;;;;;;-144.47;100.00;61586.06;5069208;28;20043;-73
2024/01/26 09:21:27;;;;;;;110.50;65.80;;;;;;;-144.47;100.00;61586.06;5069290;28;20025;-73
2024/01/26 09:23:53;;;;;;;116.40;67.82;;;;;;;-144.47;100.00;61586.06;5069707;28;20112;-73
2024/01/26 09:26:18;;;;;;;113.32;69.55;;;;;;;-144.47;100.00;61586.06;5069970;28;20472;-73
2024/01/26 09:28:44;;;;;;;150.10;66.95;;;;;;;-144.47;100.00;61586.06;5069680;28;20035;-73
2024/01/26 09:31:09;;;;;;;125.53;71.53;;;;;;;-144.47;100.00;61586.06;5069287;28;20047;-73
2024/01/26 09:33:35;;;;;;;120.55;74.28;;;;;;;-144.47;100.00;61586.06;5069002;28;20024;-73
2024/01/26 09:36:00;;;;;;;113.30;71.88;;;;;;;-144.47;100.00;61586.06;5069097;28;20564;-73
2024/01/26 09:38:26;;;;;;;108.88;75.45;;;;;;;-144.47;100.00;61586.06;5069391;28;20025;-76
2024/01/26 09:40:51;;;;;;;174.40;77.13;;;;;;;-144.47;100.00;61586.06;5068251;28;20028;-74
2024/01/26 09:43:17;;;;;;;113.10;76.95;;;;;;;-144.47;100.00;61586.06;5069817;28;20035;-74
2024/01/26 09:45:45;;;;;;;104.35;74.30;;;;;;;-144.47;100.00;61586.06;5069102;28;20039;-73
2024/01/26 09:48:10;;;;;;;105.57;75.05;;;;;;;-144.47;100.00;61586.06;5069446;28;20046;-73
2024/01/26 09:50:36;;;;;;;110.32;74.38;;;;;;;-144.47;100.00;61586.06;5069139;28;20119;-74
2024/01/26 09:53:05;;;;;;;105.47;73.20;;;;;;;-144.47;100.00;61586.06;5069405;28;20036;-73
2024/01/26 09:55:32;;;;;;;104.80;74.00;;;;;;;-144.47;100.00;61586.06;5069288;28;20029;-75
2024/01/26 09:57:58;;;;;;;102.30;71.85;;;;;;;-144.47;100.00;61586.06;5069220;28;20111;-74
2024/01/26 10:00:24;;;;;;;102.75;69.43;;;;;;;-144.47;100.00;61586.06;5069577;28;20103;-73
2024/01/26 10:02:49;;;;;;;99.22;70.57;;;;;;;-144.47;100.00;61586.06;5050983;28;20105;-74
2024/01/26 10:05:17;;;;;;;97.18;69.22;;;;;;;-144.47;100.00;61586.06;5064942;28;20075;-73
2024/01/26 10:07:44;;;;;;;115.00;66.05;;;;;;;-144.47;100.00;61586.06;5069224;28;20033;-73
2024/01/26 10:10:12;;;;;;;108.65;66.47;;;;;;;-144.47;100.00;61586.06;5069091;28;20064;-76
2024/01/26 10:12:38;;;;;;;95.78;66.15;;;;;;;-144.47;100.00;61586.06;5068993;28;20038;-74
2024/01/26 10:15:05;;;;;;;99.85;70.15;;;;;;;-144.47;100.00;61586.06;5069295;28;20032;-73
2024/01/26 10:17:31;;;;;;;94.50;66.93;;;;;;;-144.47;100.00;61586.06;5068498;28;20092;-73
2024/01/26 10:20:13;;;;;;;95.93;70.00;;;;;;;-144.47;100.00;61586.06;5068688;28;20060;-74
2024/01/26 10:22:39;;;;;;;106.53;68.55;;;;;;;-144.47;100.00;61586.06;5068265;28;20056;-75
2024/01/26 10:25:05;;;;;;;97.63;69.15;;;;;;;-144.47;100.00;61586.06;5050863;28;20094;-73
2024/01/26 10:27:33;;;;;;;104.55;68.15;;;;;;;-144.47;100.00;61586.06;5068556;28;20032;-73
2024/01/26 10:29:58;;;;;;;98.82;68.63;;;;;;;-144.47;100.00;61586.06;5050398;28;20108;-75
2024/01/26 10:32:28;;;;;;;102.28;69.20;;;;;;;-144.47;100.00;61586.06;5067951;28;20151;-75
2024/01/26 10:34:59;;;;;;;100.18;65.90;;;;;;;-144.47;100.00;61586.06;5068278;28;20036;-74
2024/01/26 10:37:29;;;;;;;108.38;70.63;;;;;;;-144.47;100.00;61586.06;5068034;28;20029;-75
2024/01/26 10:39:56;;;;;;;108.47;69.22;;;;;;;-144.47;100.00;61586.06;5068294;28;20136;-73
2024/01/26 10:42:23;;;;;;;107.72;71.00;;;;;;;-144.47;100.00;61586.06;5068433;28;20051;-74